createdAt,value
2022-08-05T00:01:36.467Z,4.00
2022-08-05T00:04:17.912Z,4.38
2022-08-05T00:06:45.363Z,4.70
2022-08-05T00:09:15.715Z,5.20
2022-08-05T00:11:48.387Z,4.78
2022-08-05T00:14:17.544Z,4.45
2022-08-05T00:16:52.142Z,5.10
2022-08-05T00:19:23.395Z,4.38
2022-08-05T00:21:52.456Z,4.95
2022-08-05T00:24:24.588Z,5.45
2022-08-05T00:26:58.727Z,4.88
2022-08-05T00:29:27.632Z,4.93
2022-08-05T00:32:12.937Z,5.75
2022-08-05T00:35:03.807Z,5.05
2022-08-05T00:37:50.464Z,5.30
2022-08-05T00:40:26.692Z,5.47
2022-08-05T00:42:58.247Z,5.07
2022-08-05T00:45:38.254Z,5.18
2022-08-05T00:48:27.662Z,5.68
2022-08-05T00:50:58.541Z,5.30
2022-08-05T00:54:00.058Z,5.40
2022-08-05T00:56:14.839Z,5.32
2022-08-05T00:58:45.109Z,5.38
2022-08-05T01:01:15.444Z,4.97
2022-08-05T01:03:52.763Z,5.10
2022-08-05T01:06:19.779Z,6.03
2022-08-05T01:08:47.395Z,5.90
2022-08-05T01:11:33.650Z,5.95
2022-08-05T01:14:15.598Z,5.85
2022-08-05T01:17:02.803Z,5.40
2022-08-05T01:20:03.702Z,5.60
2022-08-05T01:23:23.290Z,5.40
2022-08-05T01:26:20.222Z,5.20
2022-08-05T01:29:04.316Z,5.40
2022-08-05T01:31:42.567Z,5.43
2022-08-05T01:34:39.564Z,5.50
2022-08-05T01:37:25.097Z,6.45
2022-08-05T01:39:58.719Z,6.22
2022-08-05T01:42:29.079Z,5.97
2022-08-05T01:44:59.855Z,6.10
2022-08-05T01:47:39.216Z,6.18
2022-08-05T01:50:14.983Z,6.00
2022-08-05T01:52:50.020Z,6.65
2022-08-05T01:55:22.447Z,6.80
2022-08-05T01:58:09.265Z,5.90
2022-08-05T02:00:43.852Z,6.72
2022-08-05T02:03:28.923Z,6.93
2022-08-05T02:06:03.535Z,7.28
2022-08-05T02:08:58.015Z,7.03
2022-08-05T02:11:33.114Z,6.93
2022-08-05T02:14:12.428Z,6.32
2022-08-05T02:16:46.494Z,6.63
2022-08-05T02:19:28.542Z,6.22
2022-08-05T02:22:26.367Z,6.68
2022-08-05T02:25:02.116Z,6.65
2022-08-05T02:27:59.616Z,6.47
2022-08-05T02:30:21.854Z,6.90
2022-08-05T02:32:54.663Z,6.85
2022-08-05T02:35:27.796Z,6.80
2022-08-05T02:37:58.999Z,6.93
2022-08-05T02:40:27.815Z,7.63
2022-08-05T02:42:56.529Z,7.30
2022-08-05T02:45:26.445Z,6.65
2022-08-05T02:48:06.918Z,7.80
2022-08-05T02:50:44.326Z,6.90
2022-08-05T02:53:18.969Z,7.45
2022-08-05T02:55:55.183Z,7.53
2022-08-05T02:58:30.325Z,7.82
2022-08-05T03:01:02.267Z,6.90
2022-08-05T03:03:33.586Z,7.60
2022-08-05T03:06:54.481Z,7.65
2022-08-05T03:08:52.406Z,7.32
2022-08-05T03:11:57.301Z,7.88
2022-08-05T03:14:13.322Z,7.68
2022-08-05T03:16:41.105Z,9.02
2022-08-05T03:19:12.885Z,7.63
2022-08-05T03:21:48.702Z,8.30
2022-08-05T03:24:29.497Z,8.45
2022-08-05T03:27:00.002Z,9.93
2022-08-05T03:29:45.634Z,8.63
